Terminal Aerodrome Forecast
Issued by NWS Greer, SC

Home | Current Version | Previous Version | Text Only | Print | Product List | Glossary On
Versions: 1 2 3 4 5 6 7 8 9 10 11 12 13 14 15 16 17 18 19 20 21
000
FTUS42 KGSP 241120
TAFCLT
TAF
KCLT 241120Z 2412/2512 00000KT 4SM BR SCT030
      TEMPO 2412/2414 2SM BR SCT003
     FM241500 16003KT P6SM SCT250
     FM242300 17005KT P6SM SCT200
     FM250800 18006KT P6SM SCT060 BKN110=

USA.gov is the U.S. government's official web portal to all federal, state and local government web resources and services.